Time;durP1;ratioP1;P1;durP2;ratioP2;P2;SDS_P1;SDS_P2;PMS_P1;PMS_P2;Temp;Humidity;BMP_temperature;BMP_pressure;BME280_temperature;BME280_humidity;BME280_pressure;Samples;Min_cycle;Max_cycle;Signal;HPM_P1;HPM_P2
2023/03/26 00:01:15;;;;;;;8.50;2.10;;;;;;;8.56;64.13;98880.53;4989231;28;20051;-45
2023/03/26 00:03:45;;;;;;;9.43;2.50;;;;;;;8.54;64.07;98879.72;4994831;28;20046;-46
2023/03/26 00:06:14;;;;;;;8.20;2.85;;;;;;;8.49;64.88;98865.09;4999772;28;20502;-45
2023/03/26 00:08:43;;;;;;;5.05;2.30;;;;;;;8.48;64.24;98868.53;4990747;28;20681;-45
2023/03/26 00:11:13;;;;;;;10.15;2.70;;;;;;;8.45;64.74;98862.59;4991813;28;20096;-45
2023/03/26 00:13:42;;;;;;;6.53;2.53;;;;;;;8.45;65.64;98857.44;4986000;28;20124;-45
2023/03/26 00:16:12;;;;;;;6.53;2.60;;;;;;;8.43;65.44;98860.03;4994857;28;20052;-45
2023/03/26 00:18:41;;;;;;;6.93;2.75;;;;;;;8.42;65.04;98858.31;4989529;28;20058;-44
2023/03/26 00:21:11;;;;;;;6.40;1.60;;;;;;;8.41;66.21;98851.44;4990710;28;20050;-44
2023/03/26 00:23:40;;;;;;;5.43;2.03;;;;;;;8.41;65.54;98855.75;4989289;28;20065;-45
2023/03/26 00:26:09;;;;;;;8.75;2.88;;;;;;;8.40;66.08;98849.72;4982846;28;20051;-44
2023/03/26 00:28:39;;;;;;;7.13;2.67;;;;;;;8.41;65.75;98851.44;4979120;28;20061;-45
2023/03/26 00:31:09;;;;;;;3.30;2.10;;;;;;;8.42;66.56;98844.56;4980896;28;20065;-45
2023/03/26 00:33:37;;;;;;;5.80;1.27;;;;;;;8.40;66.41;98835.97;4980721;28;20450;-44
2023/03/26 00:36:08;;;;;;;6.95;2.33;;;;;;;8.40;66.40;98833.38;4981270;28;20050;-45
2023/03/26 00:38:37;;;;;;;6.65;2.05;;;;;;;8.41;66.76;98835.94;4981635;28;20050;-46
2023/03/26 00:41:07;;;;;;;3.65;2.13;;;;;;;8.43;66.51;98834.22;4981572;28;20141;-44
2023/03/26 00:43:34;;;;;;;10.05;1.40;;;;;;;8.44;65.96;98823.00;4983357;28;20619;-44
2023/03/26 00:46:01;;;;;;;8.13;2.75;;;;;;;8.43;66.72;98829.06;4979001;28;20085;-46
2023/03/26 00:48:28;;;;;;;8.43;2.60;;;;;;;8.40;67.11;98821.34;4978898;28;20497;-45
2023/03/26 00:51:14;;;;;;;9.82;2.33;;;;;;;8.39;67.54;98822.22;4982020;28;20054;-46
2023/03/26 00:53:42;;;;;;;9.93;2.85;;;;;;;8.33;67.47;98822.31;4979051;28;20417;-45
2023/03/26 00:56:09;;;;;;;10.25;2.67;;;;;;;8.31;67.97;98816.31;4977413;28;20128;-45
2023/03/26 00:58:37;;;;;;;7.22;2.55;;;;;;;8.31;67.24;98818.91;4982326;28;20050;-45
2023/03/26 01:01:07;;;;;;;11.00;1.95;;;;;;;8.34;67.02;98803.38;5009505;28;20134;-44
2023/03/26 01:03:34;;;;;;;;;;;;;;;8.27;67.19;98812.09;4986659;28;20491;-45
2023/03/26 01:06:07;;;;;;;6.15;1.90;;;;;;;8.35;67.02;98802.50;4998374;28;19961;-47
2023/03/26 01:08:39;;;;;;;3.92;2.30;;;;;;;8.40;67.58;98803.28;5007088;28;20094;-46
2023/03/26 01:11:12;;;;;;;8.40;2.50;;;;;;;8.42;66.72;98795.53;4994572;28;20054;-45
2023/03/26 01:13:45;;;;;;;6.18;2.17;;;;;;;8.42;67.33;98796.41;5000835;28;20104;-45
2023/03/26 01:16:35;;;;;;;6.85;2.38;;;;;;;8.37;67.11;98798.16;4999935;28;20045;-45
2023/03/26 01:19:12;;;;;;;10.23;2.58;;;;;;;8.38;67.25;98788.72;5003326;28;20050;-45
2023/03/26 01:21:39;;;;;;;5.75;2.28;;;;;;;8.39;67.95;98786.13;4968551;28;20137;-44
2023/03/26 01:24:08;;;;;;;5.03;2.45;;;;;;;8.40;67.33;98774.03;5005192;28;20050;-46
2023/03/26 01:32:48;;;;;;;7.95;1.60;;;;;;;8.58;68.30;98785.88;5022445;27;20406;-45
2023/03/26 01:40:45;;;;;;;12.75;3.00;;;;;;;8.49;67.68;98776.50;5093583;27;20388;-44
2023/03/26 01:45:50;;;;;;;9.13;1.58;;;;;;;8.47;68.32;98778.25;5121558;27;20407;-46
2023/03/26 01:48:17;;;;;;;11.95;1.67;;;;;;;8.45;67.74;98775.69;5096550;27;20075;-46
2023/03/26 01:50:43;;;;;;;7.47;1.30;;;;;;;8.45;68.00;98780.84;5060173;28;20049;-43
2023/03/26 01:53:12;;;;;;;7.00;1.10;;;;;;;8.46;67.53;98772.25;5064777;28;20098;-46
2023/03/26 01:55:54;;;;;;;9.30;2.03;;;;;;;8.45;68.12;98777.44;5056135;28;20126;-44
2023/03/26 01:58:29;;;;;;;9.10;1.45;;;;;;;8.45;67.48;98759.38;5058449;28;20048;-44
2023/03/26 02:01:12;;;;;;;4.03;1.08;;;;;;;8.45;67.66;98767.94;5089772;28;20087;-45
2023/03/26 02:03:46;;;;;;;8.88;1.10;;;;;;;8.46;68.35;98761.94;5056933;28;20170;-46
2023/03/26 02:06:22;;;;;;;6.45;2.22;;;;;;;8.47;67.82;98757.59;5059463;28;20458;-44
2023/03/26 02:08:55;;;;;;;8.63;1.65;;;;;;;8.48;67.91;98755.00;5055115;28;20048;-45
2023/03/26 02:11:22;;;;;;;6.03;1.42;;;;;;;8.49;68.48;98751.53;5055818;28;20571;-45
2023/03/26 02:14:03;;;;;;;5.75;1.25;;;;;;;8.49;67.93;98750.69;5054740;28;20044;-44
2023/03/26 02:16:29;;;;;;;6.18;1.48;;;;;;;8.48;67.95;98749.84;5054317;28;20066;-45
2023/03/26 02:18:58;;;;;;;8.07;1.73;;;;;;;8.49;67.93;98740.38;5059487;28;20056;-45
2023/03/26 02:21:26;;;;;;;7.05;1.45;;;;;;;8.47;68.12;98737.81;5053657;28;20064;-44
2023/03/26 02:24:01;;;;;;;7.75;1.42;;;;;;;8.48;67.72;98744.69;5056336;28;20136;-44
2023/03/26 02:26:31;;;;;;;3.78;1.52;;;;;;;8.48;68.38;98731.78;5051052;28;20501;-45
2023/03/26 02:28:58;;;;;;;10.25;1.63;;;;;;;8.47;68.49;98732.66;5053382;28;20079;-45
2023/03/26 02:31:25;;;;;;;5.88;1.45;;;;;;;8.48;68.39;98726.63;5035457;28;20049;-44
2023/03/26 02:33:54;;;;;;;4.85;1.23;;;;;;;8.46;68.32;98712.91;5039587;28;20045;-44
2023/03/26 02:36:25;;;;;;;8.13;1.20;;;;;;;8.45;68.02;98718.09;5037429;28;20049;-44
2023/03/26 02:38:54;;;;;;;6.80;1.15;;;;;;;8.44;67.77;98711.22;5029762;28;20144;-43
2023/03/26 02:41:21;;;;;;;6.68;1.00;;;;;;;8.44;67.72;98706.91;5035822;28;20128;-45
2023/03/26 02:43:47;;;;;;;5.35;0.88;;;;;;;8.44;68.55;98706.06;5036615;28;20491;-44
2023/03/26 02:46:14;;;;;;;6.90;1.52;;;;;;;8.43;67.93;98700.03;5035729;28;20091;-45
2023/03/26 02:48:41;;;;;;;6.00;1.33;;;;;;;8.44;69.01;98700.91;5027999;28;20135;-45
2023/03/26 02:51:08;;;;;;;9.10;1.73;;;;;;;8.43;68.36;98696.59;5037994;28;20477;-45
2023/03/26 02:53:36;;;;;;;12.18;1.80;;;;;;;8.41;68.84;98701.78;5035010;28;20091;-44
2023/03/26 02:56:03;;;;;;;9.15;1.42;;;;;;;8.38;68.40;98691.53;5032826;28;20049;-45
2023/03/26 02:58:30;;;;;;;6.75;1.50;;;;;;;8.36;69.12;98693.28;5021663;28;20118;-44
2023/03/26 03:00:56;;;;;;;4.15;1.30;;;;;;;8.34;68.66;98687.25;5021020;28;20045;-45
2023/03/26 03:03:25;;;;;;;6.82;1.67;;;;;;;8.31;68.77;98690.75;5024201;28;20064;-45
2023/03/26 03:05:53;;;;;;;12.77;1.67;;;;;;;8.27;69.32;98688.25;5035838;28;20130;-45
2023/03/26 03:08:23;;;;;;;4.90;1.30;;;;;;;8.21;70.25;98684.88;5022565;28;20052;-45
2023/03/26 03:11:10;;;;;;;6.80;1.52;;;;;;;8.14;69.46;98687.59;5020327;28;20069;-45
2023/03/26 03:13:37;;;;;;;6.80;1.40;;;;;;;8.11;70.24;98683.34;5021306;28;20859;-44
2023/03/26 03:16:04;;;;;;;8.93;1.58;;;;;;;8.08;69.72;98689.38;5022430;28;20120;-44
2023/03/26 03:18:31;;;;;;;9.43;1.52;;;;;;;8.06;69.67;98685.09;5016477;28;20135;-45
2023/03/26 03:20:57;;;;;;;6.35;1.33;;;;;;;8.04;70.20;98686.88;5022954;28;20112;-45
2023/03/26 03:23:24;;;;;;;7.85;1.50;;;;;;;8.02;70.46;98683.44;5028097;28;20046;-45
2023/03/26 03:25:51;;;;;;;5.63;1.95;;;;;;;8.03;69.94;98687.72;5018083;28;20069;-45
2023/03/26 03:28:19;;;;;;;9.50;1.40;;;;;;;8.02;69.74;98683.44;5017651;28;20049;-45
2023/03/26 03:30:45;;;;;;;6.00;1.80;;;;;;;8.01;70.06;98686.91;5022562;28;20099;-44
2023/03/26 03:33:12;;;;;;;10.77;1.75;;;;;;;8.00;70.84;98686.03;5018890;28;20515;-44
2023/03/26 03:35:40;;;;;;;14.27;2.05;;;;;;;8.01;69.87;98677.47;5023976;28;20074;-44
2023/03/26 03:38:07;;;;;;;6.70;1.50;;;;;;;8.01;70.11;98681.75;5018372;28;20072;-45
2023/03/26 03:40:33;;;;;;;8.73;1.40;;;;;;;8.03;70.18;98686.00;5024779;28;20111;-44
2023/03/26 03:43:00;;;;;;;6.18;1.42;;;;;;;8.04;69.77;98676.56;5020491;28;20046;-46
2023/03/26 03:45:26;;;;;;;5.25;1.20;;;;;;;8.05;70.36;98678.25;5022502;28;20077;-44
2023/03/26 03:47:53;;;;;;;7.38;1.52;;;;;;;8.06;70.42;98679.94;5024250;28;20077;-44
2023/03/26 03:50:20;;;;;;;8.77;1.58;;;;;;;8.08;69.68;98670.47;5019144;28;20125;-45
2023/03/26 03:52:46;;;;;;;3.80;1.08;;;;;;;8.09;70.91;98674.75;5021880;28;20108;-44
2023/03/26 03:55:14;;;;;;;4.40;1.35;;;;;;;8.09;70.20;98669.59;5025122;28;20069;-45
2023/03/26 03:57:40;;;;;;;6.25;1.40;;;;;;;8.08;70.20;98667.91;5021617;28;20069;-44
2023/03/26 04:00:07;;;;;;;5.80;1.42;;;;;;;8.08;70.65;98670.47;5021126;28;20136;-45
2023/03/26 04:02:34;;;;;;;5.82;1.23;;;;;;;8.08;70.08;98668.72;5023912;28;20046;-44
2023/03/26 04:05:03;;;;;;;3.90;1.60;;;;;;;8.09;70.08;98657.56;5019714;28;20042;-43
2023/03/26 04:07:31;;;;;;;4.65;1.35;;;;;;;8.10;70.82;98667.00;5020911;28;20647;-44
2023/03/26 04:09:58;;;;;;;4.60;1.42;;;;;;;8.11;71.25;98670.44;5032465;28;20045;-45
2023/03/26 04:12:27;;;;;;;3.97;1.35;;;;;;;8.10;70.45;98660.97;5022074;28;20050;-44
2023/03/26 04:14:54;;;;;;;6.55;1.58;;;;;;;8.09;70.45;98664.44;5023042;28;20065;-44
2023/03/26 04:17:22;;;;;;;9.18;1.67;;;;;;;8.11;70.77;98667.88;5022511;28;20045;-44
2023/03/26 04:19:51;;;;;;;9.02;2.38;;;;;;;8.11;70.27;98665.28;5022828;28;20058;-46
2023/03/26 04:22:18;;;;;;;13.07;1.73;;;;;;;8.11;70.60;98657.53;5038303;28;20049;-44
2023/03/26 04:24:47;;;;;;;8.65;1.10;;;;;;;8.10;70.91;98660.97;5019966;28;20461;-45
2023/03/26 04:27:18;;;;;;;5.13;2.20;;;;;;;8.10;71.31;98666.13;5037390;28;20411;-45
2023/03/26 04:29:48;;;;;;;8.98;1.17;;;;;;;8.09;71.34;98662.72;5022046;28;20041;-45
2023/03/26 04:34:59;;;;;;;6.18;1.67;;;;;;;8.12;71.48;98664.41;5072948;27;20399;-44
2023/03/26 04:37:33;;;;;;;5.15;1.25;;;;;;;8.15;71.40;98668.66;5052178;28;20044;-46
2023/03/26 04:40:09;;;;;;;7.75;1.35;;;;;;;8.15;71.62;98661.78;5043919;28;20131;-46
2023/03/26 04:42:40;;;;;;;6.00;1.88;;;;;;;8.16;71.03;98655.75;5038419;28;20045;-47
2023/03/26 04:45:08;;;;;;;11.07;2.22;;;;;;;8.17;70.81;98656.59;5045200;28;20504;-44
2023/03/26 04:47:35;;;;;;;9.13;1.48;;;;;;;8.18;71.84;98659.13;5041917;28;20064;-45
2023/03/26 04:50:03;;;;;;;6.40;1.45;;;;;;;8.19;71.26;98655.69;5039431;28;20049;-46
2023/03/26 04:52:30;;;;;;;5.47;1.10;;;;;;;8.18;71.10;98656.56;5043692;28;20127;-46
2023/03/26 04:54:57;;;;;;;6.93;1.38;;;;;;;8.17;71.89;98657.44;5063579;28;20048;-45
2023/03/26 04:57:33;;;;;;;11.73;1.73;;;;;;;8.16;71.87;98665.19;5040893;28;20048;-44
2023/03/26 05:00:01;;;;;;;7.00;1.75;;;;;;;8.14;72.01;98666.97;5052011;28;20072;-44
2023/03/26 05:02:28;;;;;;;9.75;2.03;;;;;;;8.14;72.18;98666.97;5063799;28;20620;-45
2023/03/26 05:04:56;;;;;;;7.65;1.25;;;;;;;8.14;71.41;98667.78;5066604;28;20558;-44
2023/03/26 05:07:22;;;;;;;7.93;1.88;;;;;;;8.16;71.30;98670.34;5064755;28;20067;-45
2023/03/26 05:09:49;;;;;;;6.35;1.85;;;;;;;8.16;71.55;98671.22;5040369;28;20716;-46
2023/03/26 05:12:16;;;;;;;6.00;1.70;;;;;;;8.16;72.06;98678.94;5052349;28;20067;-44
2023/03/26 05:14:43;;;;;;;5.05;1.52;;;;;;;8.17;71.89;98678.06;5045390;28;20103;-44
2023/03/26 05:17:13;;;;;;;6.32;1.98;;;;;;;8.16;71.64;98678.94;5049077;28;20056;-48
2023/03/26 05:19:40;;;;;;;10.65;1.70;;;;;;;8.15;72.44;98679.84;5064869;28;20131;-45
2023/03/26 05:22:07;;;;;;;6.22;2.13;;;;;;;8.12;71.52;98690.19;5047388;28;20102;-46
2023/03/26 05:24:33;;;;;;;4.35;1.77;;;;;;;8.09;72.50;98690.22;5044725;28;20076;-44
2023/03/26 05:27:00;;;;;;;8.52;2.42;;;;;;;8.05;73.06;98691.16;5031731;28;20104;-46
2023/03/26 05:29:27;;;;;;;8.55;2.25;;;;;;;8.02;72.88;98688.59;5031393;28;20461;-45
2023/03/26 05:31:54;;;;;;;6.05;2.58;;;;;;;7.98;73.05;98698.13;5024127;28;20163;-46
2023/03/26 05:34:25;;;;;;;8.00;2.53;;;;;;;7.95;72.43;98700.75;5024603;28;20490;-44
2023/03/26 05:36:51;;;;;;;16.17;3.03;;;;;;;7.90;72.19;98690.47;5018830;28;20409;-47
2023/03/26 05:39:21;;;;;;;6.72;2.88;;;;;;;7.89;73.04;98683.63;5019924;28;20049;-43
2023/03/26 05:41:48;;;;;;;9.18;3.25;;;;;;;7.88;72.32;98692.25;5024859;28;20132;-45
2023/03/26 05:44:15;;;;;;;9.20;3.28;;;;;;;7.88;72.50;98701.69;5026624;28;20041;-44
2023/03/26 05:46:41;;;;;;;9.95;3.92;;;;;;;7.84;73.20;98701.72;5009121;28;20489;-47
2023/03/26 05:49:08;;;;;;;11.23;3.33;;;;;;;7.82;72.56;98707.78;5006505;28;20649;-46
2023/03/26 05:51:35;;;;;;;13.40;4.80;;;;;;;7.74;73.75;98701.88;5018545;28;20546;-45
2023/03/26 05:54:01;;;;;;;15.65;5.45;;;;;;;7.71;72.57;98706.19;5030352;28;20083;-44
2023/03/26 05:56:28;;;;;;;19.77;5.78;;;;;;;7.65;74.07;98706.28;5028703;28;20065;-46
2023/03/26 05:58:55;;;;;;;13.00;5.75;;;;;;;7.65;73.19;98710.56;5029532;28;20107;-44
2023/03/26 06:01:24;;;;;;;16.63;6.00;;;;;;;7.63;72.71;98713.16;5023850;28;20083;-44
2023/03/26 06:03:51;;;;;;;19.50;6.75;;;;;;;7.60;72.85;98713.19;5005522;28;20046;-45
2023/03/26 06:06:19;;;;;;;17.80;6.03;;;;;;;7.57;73.13;98719.25;5010869;28;20056;-45
2023/03/26 06:08:49;;;;;;;21.75;6.03;;;;;;;7.54;74.10;98718.44;5007711;28;20066;-45
2023/03/26 06:11:30;;;;;;;20.55;6.35;;;;;;;7.55;74.43;98714.97;5012658;28;20053;-44
2023/03/26 06:13:57;;;;;;;11.80;4.22;;;;;;;7.50;74.47;98717.59;5015132;28;20466;-45
2023/03/26 06:16:23;;;;;;;12.13;4.78;;;;;;;7.46;75.03;98724.53;5007712;28;20049;-47
2023/03/26 06:18:54;;;;;;;14.48;5.10;;;;;;;7.49;73.68;98725.38;5010976;28;20041;-44
2023/03/26 06:21:24;;;;;;;13.35;4.10;;;;;;;7.47;75.72;98727.97;5006809;28;20057;-45
2023/03/26 06:23:50;;;;;;;10.27;4.03;;;;;;;7.46;75.63;98732.25;5020237;28;20046;-45
2023/03/26 06:26:17;;;;;;;9.93;3.90;;;;;;;7.45;74.87;98734.84;5025037;28;20111;-44
2023/03/26 06:28:44;;;;;;;12.43;3.65;;;;;;;7.46;75.21;98737.41;5008350;28;20056;-44
2023/03/26 06:31:10;;;;;;;9.68;3.65;;;;;;;7.43;75.49;98742.59;5008711;28;20104;-44
2023/03/26 06:33:37;;;;;;;10.15;3.75;;;;;;;7.45;75.00;98738.28;5009310;28;20046;-44
2023/03/26 06:36:04;;;;;;;11.70;3.65;;;;;;;7.47;75.55;98740.84;5004898;28;20470;-46
2023/03/26 06:38:31;;;;;;;14.13;3.63;;;;;;;7.49;76.44;98746.81;5010450;28;20092;-45
2023/03/26 06:41:03;;;;;;;11.45;3.60;;;;;;;7.45;75.48;98751.16;5016275;28;20071;-47
2023/03/26 06:43:32;;;;;;;9.23;3.78;;;;;;;7.49;75.32;98761.44;5008010;28;20076;-45
2023/03/26 06:46:00;;;;;;;12.13;4.43;;;;;;;7.49;75.34;98761.44;5013704;28;20064;-44
2023/03/26 06:48:27;;;;;;;11.88;3.33;;;;;;;7.45;76.24;98765.75;5011690;28;20045;-46
2023/03/26 06:50:54;;;;;;;12.98;3.75;;;;;;;7.46;75.59;98767.47;5015691;28;20528;-45
2023/03/26 06:53:20;;;;;;;9.27;3.00;;;;;;;7.50;75.79;98773.44;5011836;28;20100;-46
2023/03/26 06:55:47;;;;;;;7.93;3.65;;;;;;;7.50;76.19;98774.28;5006432;28;20786;-45
2023/03/26 06:58:15;;;;;;;12.55;2.70;;;;;;;7.53;75.94;98778.59;5012128;28;20053;-46
2023/03/26 07:00:42;;;;;;;10.27;2.95;;;;;;;7.54;75.82;98788.00;5013046;28;20046;-44
2023/03/26 07:03:10;;;;;;;8.77;2.58;;;;;;;7.48;76.61;98801.81;5007874;28;20058;-46
2023/03/26 07:05:39;;;;;;;9.38;2.08;;;;;;;7.50;76.68;98788.91;5016612;28;20104;-43
2023/03/26 07:08:06;;;;;;;8.05;2.95;;;;;;;7.50;76.48;98797.47;5006266;28;20497;-44
2023/03/26 07:10:33;;;;;;;10.70;3.13;;;;;;;7.52;76.11;98805.19;5002749;28;20045;-45
2023/03/26 07:12:59;;;;;;;9.80;3.28;;;;;;;7.49;75.58;98820.72;5006952;28;20157;-44
2023/03/26 07:15:27;;;;;;;9.13;2.58;;;;;;;7.43;77.08;98809.56;5005155;28;20046;-44
2023/03/26 07:17:55;;;;;;;11.70;3.20;;;;;;;7.45;76.92;98818.16;5004557;28;20057;-44
2023/03/26 07:20:22;;;;;;;12.73;3.13;;;;;;;7.43;77.51;98822.44;5003483;28;20650;-45
2023/03/26 07:22:49;;;;;;;11.48;3.05;;;;;;;7.47;76.39;98818.16;5021285;28;20056;-45
2023/03/26 07:25:17;;;;;;;7.25;3.30;;;;;;;7.48;76.26;98826.72;5024304;28;20172;-47
2023/03/26 07:28:24;;;;;;;11.25;3.05;;;;;;;7.49;77.02;98831.84;5025156;28;20053;-46
2023/03/26 07:33:46;;;;;;;11.10;3.25;;;;;;;7.52;77.11;98843.84;5059035;28;20391;-45
2023/03/26 07:42:03;;;;;;;9.05;3.35;;;;;;;7.46;76.77;98855.94;5042209;27;20390;-44
2023/03/26 07:47:26;;;;;;;6.13;0.77;;;;;;;7.43;78.34;98866.25;5027486;27;20399;-44
2023/03/26 07:49:54;;;;;;;6.35;1.60;;;;;;;7.42;77.09;98861.97;4976561;28;20042;-47
2023/03/26 07:52:21;;;;;;;5.63;1.00;;;;;;;7.34;77.92;98871.50;4979468;28;20062;-47
2023/03/26 07:54:48;;;;;;;5.75;0.85;;;;;;;7.37;77.66;98881.78;4983011;28;20046;-46
2023/03/26 07:57:47;;;;;;;7.00;1.88;;;;;;;7.28;78.92;98892.13;4970174;28;20128;-47
2023/03/26 08:03:24;;;;;;;5.50;0.98;;;;;;;7.21;78.69;98893.91;5027572;28;20409;-47
2023/03/26 08:14:07;;;;;;;9.07;1.40;;;;;;;7.50;77.39;98908.25;5022689;28;20419;-46
2023/03/26 08:21:54;;;;;;;5.30;0.77;;;;;;;7.21;77.18;98937.69;5029145;28;20396;-46
2023/03/26 08:27:26;;;;;;;6.20;1.05;;;;;;;7.17;78.18;98962.59;5063530;27;20407;-44
2023/03/26 08:30:24;;;;;;;3.60;1.27;;;;;;;7.15;77.48;98963.47;5047991;28;20420;-45
2023/03/26 08:32:56;;;;;;;6.13;0.93;;;;;;;7.14;76.39;98972.94;5048781;28;20842;-45
2023/03/26 08:35:25;;;;;;;3.65;0.70;;;;;;;7.07;76.80;98984.97;5053500;28;20040;-45
2023/03/26 08:37:52;;;;;;;7.72;1.15;;;;;;;7.06;76.17;98979.88;5084709;28;20049;-45
2023/03/26 08:51:55;;;;;;;5.22;2.50;;;;;;;7.06;76.40;99015.91;5031984;27;20429;-46
2023/03/26 09:03:22;;;;;;;4.82;1.25;;;;;;;6.96;76.10;99034.81;5013859;27;20424;-45
2023/03/26 09:09:33;;;;;;;3.20;0.70;;;;;;;6.91;76.71;99066.59;5024667;28;20409;-45
2023/03/26 09:12:40;;;;;;;6.65;0.95;;;;;;;6.93;75.57;99062.28;5013899;28;20151;-44
2023/03/26 09:15:32;;;;;;;10.07;1.50;;;;;;;6.90;77.09;99072.63;5007008;28;20046;-44
2023/03/26 09:21:26;;;;;;;10.70;2.55;;;;;;;6.85;76.08;99084.63;5027575;28;20402;-45
2023/03/26 09:24:33;;;;;;;10.50;2.28;;;;;;;6.88;75.68;99083.75;4996846;28;20141;-47
2023/03/26 09:40:57;;;;;;;12.63;1.60;;;;;;;6.92;76.79;99114.63;5057151;27;20922;-44
2023/03/26 09:44:04;;;;;;;7.28;1.40;;;;;;;6.96;76.55;99127.50;5034238;28;20045;-45
2023/03/26 10:11:21;;;;;;;14.68;1.75;;;;;;;7.29;74.40;99198.66;5086356;27;20404;-44
2023/03/26 10:14:16;;;;;;;9.73;1.40;;;;;;;7.40;74.40;99198.63;5048704;28;20547;-45
2023/03/26 10:25:13;;;;;;;11.85;1.55;;;;;;;7.63;73.23;99223.44;5039472;28;20393;-46
2023/03/26 10:30:54;;;;;;;9.43;1.13;;;;;;;7.62;73.37;99238.91;5070431;27;20410;-45
2023/03/26 10:33:32;;;;;;;6.25;1.85;;;;;;;7.70;73.85;99239.75;5039947;28;20130;-45
2023/03/26 10:39:18;;;;;;;12.75;2.88;;;;;;;7.80;72.46;99256.88;5010778;27;20419;-45
2023/03/26 10:55:39;;;;;;;5.75;2.20;;;;;;;7.88;71.75;99305.84;5036432;28;20397;-44
2023/03/26 10:58:25;;;;;;;7.78;2.78;;;;;;;7.90;72.00;99304.13;5001634;28;20065;-44
2023/03/26 11:03:53;;;;;;;7.72;1.08;;;;;;;7.94;71.29;99325.59;5048800;27;20664;-45
2023/03/26 11:06:49;;;;;;;8.38;1.38;;;;;;;7.95;71.53;99333.34;5040772;28;20053;-45
2023/03/26 11:09:42;;;;;;;10.55;1.08;;;;;;;8.06;71.03;99330.72;5061667;28;20135;-46
2023/03/26 11:15:16;;;;;;;13.02;1.42;;;;;;;8.10;70.85;99349.59;5063634;27;21095;-46
2023/03/26 11:29:16;;;;;;;4.72;0.70;;;;;;;8.09;69.98;99365.94;5096134;27;20978;-48
2023/03/26 11:32:05;;;;;;;5.90;0.75;;;;;;;8.17;69.67;99376.25;5045655;28;20051;-46
2023/03/26 11:34:37;;;;;;;5.13;1.05;;;;;;;8.31;69.29;99381.34;5075383;28;20052;-46
2023/03/26 11:37:11;;;;;;;5.32;0.68;;;;;;;8.52;69.58;99387.28;5077273;28;20072;-45
2023/03/26 11:39:46;;;;;;;2.03;0.60;;;;;;;8.72;69.42;99397.53;5086853;28;20141;-46
2023/03/26 11:42:16;;;;;;;7.78;1.95;;;;;;;8.90;68.53;99386.22;5072852;28;20062;-47
2023/03/26 11:44:54;;;;;;;5.47;0.93;;;;;;;8.91;67.80;99397.44;5071492;28;20118;-46
2023/03/26 11:47:30;;;;;;;4.57;0.75;;;;;;;8.83;66.65;99395.75;5085675;28;20055;-45
2023/03/26 11:49:59;;;;;;;7.40;0.70;;;;;;;8.84;67.87;99404.31;5071400;28;20060;-47
2023/03/26 11:52:26;;;;;;;9.60;1.98;;;;;;;8.84;67.38;99412.06;5072112;28;20605;-46
2023/03/26 11:54:52;;;;;;;4.30;1.42;;;;;;;8.73;67.38;99410.44;5079801;28;20056;-45
2023/03/26 11:57:32;;;;;;;5.25;0.95;;;;;;;8.73;67.15;99425.94;5079853;28;20068;-47
2023/03/26 12:00:15;;;;;;;5.13;1.08;;;;;;;8.69;67.30;99424.22;5081401;28;20048;-47
2023/03/26 12:02:42;;;;;;;6.03;0.80;;;;;;;8.61;67.10;99437.16;5078909;28;20136;-47
2023/03/26 12:07:59;;;;;;;4.85;0.85;;;;;;;8.52;66.43;99459.53;5048466;28;20894;-47
2023/03/26 12:10:36;;;;;;;10.20;1.42;;;;;;;8.52;66.75;99468.16;5008743;28;20049;-45
2023/03/26 12:16:06;;;;;;;6.25;2.08;;;;;;;8.56;66.32;99474.19;5020380;27;20394;-45
2023/03/26 12:18:33;;;;;;;6.35;2.03;;;;;;;8.55;65.97;99482.78;5009537;28;20157;-47
2023/03/26 12:21:04;;;;;;;2.88;1.52;;;;;;;8.52;64.87;99493.09;5009773;28;20119;-46
2023/03/26 12:26:16;;;;;;;8.23;2.88;;;;;;;8.51;65.56;99499.13;5079350;27;21099;-45
2023/03/26 12:28:45;;;;;;;4.57;0.70;;;;;;;8.57;65.15;99509.44;5053376;28;20048;-47
2023/03/26 12:31:17;;;;;;;6.97;1.80;;;;;;;8.48;65.17;99503.41;5051660;28;20465;-47
2023/03/26 12:34:03;;;;;;;2.88;0.47;;;;;;;8.53;63.81;99515.44;5053914;28;20175;-47
2023/03/26 12:36:32;;;;;;;7.72;0.63;;;;;;;8.58;64.00;99513.78;5048403;28;20049;-47
2023/03/26 12:38:59;;;;;;;7.30;2.05;;;;;;;8.55;63.36;99518.94;5051328;28;20052;-52
2023/03/26 12:41:54;;;;;;;10.95;0.88;;;;;;;8.59;63.54;99530.97;5055099;28;20536;-51
2023/03/26 12:44:49;;;;;;;6.07;0.73;;;;;;;8.68;64.41;99530.91;5039457;28;20131;-46
2023/03/26 12:47:33;;;;;;;8.85;0.73;;;;;;;8.71;64.36;99536.09;5065326;28;20064;-46
2023/03/26 12:50:27;;;;;;;3.15;0.75;;;;;;;8.81;64.26;99536.06;5052682;28;20048;-47
2023/03/26 12:53:17;;;;;;;3.85;0.70;;;;;;;8.95;63.87;99547.19;5045282;28;20070;-47
2023/03/26 13:03:54;;;;;;;3.05;1.00;;;;;;;9.15;61.76;99556.56;5063755;27;20395;-45
2023/03/26 13:20:10;;;;;;;1.83;0.60;;;;;;;9.21;62.06;99582.38;5040214;28;20424;-46
2023/03/26 13:25:35;;;;;;;8.82;1.13;;;;;;;9.24;62.01;99595.31;5038192;28;20416;-47
2023/03/26 13:36:17;;;;;;;4.05;0.75;;;;;;;9.16;61.31;99620.31;5002679;28;20412;-46
2023/03/26 13:39:03;;;;;;;;;;;;;;;9.11;61.42;99624.63;4977974;28;20644;-48
2023/03/26 13:46:54;;;;;;;5.93;1.30;;;;;;;9.36;61.54;99621.97;5048272;27;20410;-49
2023/03/26 13:52:03;;;;;;;9.48;1.85;;;;;;;9.72;61.77;99639.84;5080045;27;20412;-46
2023/03/26 13:57:17;;;;;;;6.18;0.90;;;;;;;9.64;59.53;99647.66;5024546;27;20402;-46
2023/03/26 14:02:32;;;;;;;10.52;1.42;;;;;;;9.48;59.79;99668.41;5039244;27;20398;-45
2023/03/26 14:05:05;;;;;;;6.05;1.05;;;;;;;9.45;59.84;99668.44;5013906;28;20053;-47
2023/03/26 14:07:42;;;;;;;6.82;1.90;;;;;;;9.41;60.42;99671.03;5017088;28;20093;-47
2023/03/26 14:10:15;;;;;;;2.80;1.38;;;;;;;9.32;59.38;99672.78;5020305;28;20049;-45
2023/03/26 14:15:46;;;;;;;2.83;1.88;;;;;;;9.42;59.91;99681.34;4999319;27;20419;-49
2023/03/26 14:21:35;;;;;;;2.70;0.68;;;;;;;9.39;59.77;99689.13;4998808;28;20423;-46
2023/03/26 14:33:29;;;;;;;4.88;1.95;;;;;;;9.36;60.95;99715.00;5027126;28;20767;-48
2023/03/26 14:36:24;;;;;;;3.83;1.00;;;;;;;9.34;59.94;99711.56;4986775;28;20042;-49
2023/03/26 14:39:30;;;;;;;8.98;0.60;;;;;;;9.44;60.79;99721.00;4998268;28;20438;-48
2023/03/26 14:42:06;;;;;;;4.95;1.45;;;;;;;9.57;60.61;99731.28;4998487;28;20100;-46
2023/03/26 14:48:16;;;;;;;3.78;0.95;;;;;;;9.57;60.02;99729.59;5070957;27;20789;-47
2023/03/26 14:51:11;;;;;;;3.67;1.52;;;;;;;9.58;60.10;99735.59;5053021;28;20102;-47
2023/03/26 14:53:42;;;;;;;5.30;1.92;;;;;;;9.67;59.99;99738.16;5052268;28;20056;-46
2023/03/26 15:02:07;;;;;;;2.75;0.65;;;;;;;9.73;58.94;99743.28;5074007;27;20387;-47
2023/03/26 15:07:52;;;;;;;4.03;2.40;;;;;;;9.84;58.92;99752.75;5065793;27;20383;-46
2023/03/26 15:13:21;;;;;;;1.77;0.40;;;;;;;9.87;58.81;99769.09;5069454;27;20375;-46
2023/03/26 15:27:00;;;;;;;4.38;0.68;;;;;;;9.72;58.77;99806.22;5043516;28;20399;-47
2023/03/26 15:43:19;;;;;;;2.67;1.95;;;;;;;9.50;58.76;99839.03;5103397;27;20377;-47
2023/03/26 15:49:04;;;;;;;1.83;0.68;;;;;;;9.40;59.10;99840.78;5075217;27;20406;-48
2023/03/26 15:52:05;;;;;;;4.68;0.88;;;;;;;9.38;58.99;99852.84;5073224;28;20508;-49
2023/03/26 15:54:56;;;;;;;1.50;0.68;;;;;;;9.42;59.86;99864.06;5071192;28;20572;-47
2023/03/26 16:00:21;;;;;;;3.08;0.65;;;;;;;9.36;59.85;99875.25;5023815;27;20414;-49
2023/03/26 16:06:26;;;;;;;2.97;0.77;;;;;;;9.16;59.38;99886.47;5063924;27;20405;-49
2023/03/26 16:09:11;;;;;;;3.47;0.80;;;;;;;9.10;59.14;99901.94;5035141;28;20049;-47
2023/03/26 16:15:10;;;;;;;4.28;2.05;;;;;;;8.82;59.45;99904.50;5038913;27;20739;-47
2023/03/26 16:20:53;;;;;;;3.17;1.58;;;;;;;8.70;59.74;99915.66;5045440;27;20406;-49
2023/03/26 16:26:56;;;;;;;3.85;1.10;;;;;;;8.90;58.73;99931.19;5049010;28;20395;-48
2023/03/26 16:29:26;;;;;;;7.05;0.68;;;;;;;8.73;60.30;99937.19;5027021;28;20128;-47
2023/03/26 16:37:50;;;;;;;3.08;1.73;;;;;;;8.55;60.43;99957.78;5034328;28;20387;-47
2023/03/26 16:48:40;;;;;;;1.27;0.40;;;;;;;8.34;60.11;99982.56;5096287;27;20385;-47
2023/03/26 16:51:21;;;;;;;6.53;0.90;;;;;;;8.30;59.80;99979.13;5031666;28;20053;-46
2023/03/26 16:54:28;;;;;;;3.67;0.52;;;;;;;8.25;59.75;99992.84;5021859;28;20050;-48
2023/03/26 17:08:11;;;;;;;4.28;2.08;;;;;;;8.18;60.05;100015.19;5050388;27;20396;-47
2023/03/26 17:10:55;;;;;;;2.90;1.65;;;;;;;8.17;60.85;100024.63;5008709;28;20136;-48
2023/03/26 17:13:37;;;;;;;2.83;0.50;;;;;;;8.16;60.22;100033.22;5045489;28;20041;-47
2023/03/26 17:16:27;;;;;;;2.00;0.50;;;;;;;8.12;60.71;100041.81;5032964;28;20095;-48
2023/03/26 17:19:28;;;;;;;4.35;0.60;;;;;;;8.08;60.28;100045.22;5047144;28;20053;-46
2023/03/26 17:22:04;;;;;;;2.85;0.35;;;;;;;8.08;60.51;100055.53;5030188;28;20045;-46